Terminal Aerodrome Forecast
Issued by NWS Cleveland, OH

Home | Current Version | Previous Version | Text Only | Print | Product List | Glossary On
Versions: 1 2 3 4 5 6 7 8 9 10 11 12 13 14 15 16 17 18 19 20 21 22 23 24 25 26 27 28 29 30 31 32 33 34 35 36
000
FTUS41 KCLE 051400 AAB
TAFCLE
TAF AMD
KCLE 051453Z 0515/0618 02010KT P6SM SCT015 OVC150
      TEMPO 0515/0517 BKN015 OVC150
     FM051700 33010KT P6SM BKN035
     FM060100 VRB03KT P6SM FEW035
     FM061200 VRB02KT P6SM SKC=

USA.gov is the U.S. government's official web portal to all federal, state and local government web resources and services.